createdAt,value
2019-04-05T00:02:04.642Z,8.83
2019-04-05T00:04:51.394Z,8.82
2019-04-05T00:07:38.226Z,8.82
2019-04-05T00:10:26.161Z,8.81
2019-04-05T00:13:14.300Z,9.45
2019-04-05T00:16:01.188Z,9.63
2019-04-05T00:18:51.712Z,9.11
2019-04-05T00:21:38.823Z,8.97
2019-04-05T00:24:26.377Z,9.60
2019-04-05T00:27:13.106Z,9.07
2019-04-05T00:30:01.109Z,8.96
2019-04-05T00:32:48.323Z,8.92
2019-04-05T00:35:35.441Z,8.83
2019-04-05T00:38:25.832Z,9.51
2019-04-05T00:41:13.232Z,9.07
2019-04-05T00:44:00.043Z,9.03
2019-04-05T00:46:46.762Z,9.01
2019-04-05T00:49:33.488Z,9.02
2019-04-05T00:52:20.338Z,9.03
2019-04-05T00:55:07.311Z,9.06
2019-04-05T00:57:54.697Z,9.06
2019-04-05T01:00:41.892Z,9.06
2019-04-05T01:03:29.106Z,9.05
2019-04-05T01:06:15.772Z,9.05
2019-04-05T01:09:02.928Z,9.76
2019-04-05T01:11:50.085Z,9.33
2019-04-05T01:14:36.792Z,9.29
2019-04-05T01:17:25.212Z,9.28
2019-04-05T01:20:11.349Z,9.27
2019-04-05T01:22:58.748Z,9.29
2019-04-05T01:28:51.840Z,9.33
2019-04-05T01:31:39.050Z,9.35
2019-04-05T01:34:25.953Z,9.38
2019-04-05T01:37:13.049Z,9.42
2019-04-05T01:39:59.896Z,9.46
2019-04-05T01:42:47.096Z,9.46
2019-04-05T01:45:34.521Z,10.19
2019-04-05T01:48:21.417Z,10.46
2019-04-05T01:51:11.413Z,9.91
2019-04-05T01:53:59.124Z,9.82
2019-04-05T01:56:46.268Z,9.78
2019-04-05T01:59:33.062Z,9.76
2019-04-05T02:02:19.984Z,9.72
2019-04-05T02:05:07.913Z,9.73
2019-04-05T02:07:54.575Z,9.72
2019-04-05T02:10:41.344Z,9.72
2019-04-05T02:13:28.672Z,9.73
2019-04-05T02:16:15.871Z,9.73
2019-04-05T02:19:02.987Z,9.75
2019-04-05T02:21:50.197Z,9.72
2019-04-05T02:24:36.910Z,9.74
2019-04-05T02:27:23.742Z,10.45
2019-04-05T02:30:11.140Z,10.69
2019-04-05T02:32:58.285Z,10.14
2019-04-05T02:35:45.479Z,10.75
2019-04-05T02:38:34.624Z,10.93
2019-04-05T02:41:21.651Z,10.32
2019-04-05T02:44:08.687Z,10.15
2019-04-05T02:46:55.781Z,10.06
2019-04-05T02:49:42.745Z,10.04
2019-04-05T02:52:29.988Z,10.75
2019-04-05T02:55:17.286Z,10.21
2019-04-05T02:58:03.992Z,10.08
2019-04-05T03:00:51.054Z,10.03
2019-04-05T03:03:38.387Z,9.99
2019-04-05T03:06:25.999Z,9.96
2019-04-05T03:09:12.924Z,9.94
2019-04-05T03:12:00.599Z,9.91
2019-04-05T03:14:47.678Z,9.93
2019-04-05T03:17:34.982Z,9.91
2019-04-05T03:20:21.776Z,9.92
2019-04-05T03:23:08.818Z,9.92
2019-04-05T03:25:56.242Z,9.92
2019-04-05T03:31:49.477Z,9.90
2019-04-05T03:34:36.199Z,9.91
2019-04-05T03:37:23.133Z,9.89
2019-04-05T03:40:10.008Z,9.87
2019-04-05T03:42:56.764Z,9.88
2019-04-05T03:45:43.430Z,9.87
2019-04-05T03:48:30.235Z,9.86
2019-04-05T03:51:17.434Z,9.84
2019-04-05T03:54:04.678Z,9.86
2019-04-05T03:56:51.382Z,9.83
2019-04-05T03:59:38.221Z,9.82
2019-04-05T04:02:25.487Z,9.83
2019-04-05T04:05:12.886Z,9.80
2019-04-05T04:07:59.637Z,10.50
2019-04-05T04:10:47.181Z,10.03
2019-04-05T04:13:34.075Z,9.97
2019-04-05T04:16:20.909Z,9.93
2019-04-05T04:19:08.174Z,9.91
2019-04-05T04:22:13.904Z,9.90
2019-04-05T04:25:01.588Z,9.88
2019-04-05T04:27:48.482Z,9.89
2019-04-05T04:30:35.668Z,9.86
2019-04-05T04:33:22.953Z,9.87
2019-04-05T04:36:12.895Z,9.88
2019-04-05T04:38:56.820Z,9.89
2019-04-05T04:41:43.509Z,9.88
2019-04-05T04:44:31.462Z,10.57
2019-04-05T04:47:26.538Z,10.07
2019-04-05T04:50:05.523Z,9.96
2019-04-05T04:52:53.624Z,9.89
2019-04-05T04:55:40.263Z,10.56
2019-04-05T04:58:27.058Z,10.06
2019-04-05T05:01:13.920Z,9.93
2019-04-05T05:04:01.009Z,10.62
2019-04-05T05:06:48.173Z,9.99
2019-04-05T05:09:35.262Z,9.88
2019-04-05T05:12:22.455Z,9.78
2019-04-05T05:15:09.659Z,9.73
2019-04-05T05:17:59.219Z,9.69
2019-04-05T05:20:46.211Z,9.66
2019-04-05T05:23:33.250Z,9.66
2019-04-05T05:26:20.003Z,9.59
2019-04-05T05:29:07.065Z,9.56
2019-04-05T05:31:54.280Z,10.34
2019-04-05T05:34:41.047Z,9.91
2019-04-05T05:37:29.008Z,10.60
2019-04-05T05:40:16.836Z,10.77
2019-04-05T05:43:03.623Z,10.13
2019-04-05T05:45:50.433Z,10.79
2019-04-05T05:48:37.286Z,10.24
2019-04-05T05:51:24.477Z,10.07
2019-04-05T05:54:11.979Z,9.97
2019-04-05T05:57:00.035Z,9.95
2019-04-05T06:03:00.513Z,9.95
2019-04-05T06:06:03.229Z,9.98
2019-04-05T06:08:37.283Z,10.01
2019-04-05T06:11:24.078Z,10.01
2019-04-05T06:14:11.195Z,9.99
2019-04-05T06:16:58.193Z,9.98
2019-04-05T06:19:45.057Z,9.97
2019-04-05T06:22:31.829Z,9.99
2019-04-05T06:25:18.877Z,10.02
2019-04-05T06:28:06.144Z,10.03
2019-04-05T06:30:52.866Z,9.99
2019-04-05T06:33:40.681Z,9.98
2019-04-05T06:36:27.494Z,9.97
2019-04-05T06:39:14.127Z,9.93
2019-04-05T06:42:00.945Z,9.97
2019-04-05T06:44:47.839Z,10.00
2019-04-05T06:47:34.935Z,10.01
2019-04-05T06:50:22.025Z,10.04
2019-04-05T06:53:08.854Z,10.12
2019-04-05T06:55:56.126Z,10.14
2019-04-05T06:58:46.196Z,10.15
2019-04-05T07:01:44.942Z,10.20
2019-04-05T07:04:32.034Z,10.23
2019-04-05T07:07:18.818Z,11.08
2019-04-05T07:10:06.022Z,10.59
2019-04-05T07:12:53.692Z,10.57
2019-04-05T07:15:40.742Z,11.39
2019-04-05T07:18:35.539Z,10.88
2019-04-05T07:21:17.175Z,10.77
2019-04-05T07:24:02.093Z,10.77
2019-04-05T07:26:49.290Z,10.74
2019-04-05T07:29:38.572Z,10.79
2019-04-05T07:32:25.584Z,11.70
2019-04-05T07:35:13.105Z,11.96
2019-04-05T07:38:00.341Z,11.35
2019-04-05T07:40:46.929Z,11.24
2019-04-05T07:43:34.652Z,11.22
2019-04-05T07:46:21.785Z,11.17
2019-04-05T07:49:08.784Z,11.10
2019-04-05T07:51:56.000Z,11.08
2019-04-05T07:54:42.837Z,11.98
2019-04-05T07:57:29.631Z,11.37
2019-04-05T08:00:38.021Z,11.20
2019-04-05T08:03:24.748Z,11.11
2019-04-05T08:06:12.034Z,11.13
2019-04-05T08:09:02.073Z,11.14
2019-04-05T08:11:46.341Z,11.14
2019-04-05T08:14:34.112Z,12.05
2019-04-05T08:17:21.020Z,11.46
2019-04-05T08:20:07.864Z,11.34
2019-04-05T08:22:55.674Z,11.27
2019-04-05T08:28:49.255Z,11.17
2019-04-05T08:31:36.254Z,11.16
2019-04-05T08:34:23.157Z,11.20
2019-04-05T08:37:10.190Z,11.25
2019-04-05T08:39:58.725Z,11.31
2019-04-05T08:42:45.473Z,11.32
2019-04-05T08:45:32.201Z,11.29
2019-04-05T08:48:19.154Z,11.28
2019-04-05T08:51:05.742Z,11.27
2019-04-05T08:54:07.126Z,11.28
2019-04-05T09:00:01.214Z,11.40
2019-04-05T09:03:02.956Z,11.46
2019-04-05T09:08:55.476Z,11.50
2019-04-05T09:11:42.702Z,11.60
2019-04-05T09:14:30.526Z,11.68
2019-04-05T09:17:17.691Z,11.68
2019-04-05T09:20:07.503Z,11.74
2019-04-05T09:22:54.330Z,11.82
2019-04-05T09:25:41.448Z,11.83
2019-04-05T09:28:28.754Z,11.88
2019-04-05T09:31:15.782Z,11.86
2019-04-05T09:34:02.896Z,11.77
2019-04-05T09:36:49.806Z,11.65
2019-04-05T09:39:36.799Z,11.64
2019-04-05T09:42:23.833Z,11.68
2019-04-05T09:45:10.617Z,11.77
2019-04-05T09:47:57.424Z,11.85
2019-04-05T09:50:58.701Z,11.91
2019-04-05T09:53:45.600Z,11.99
2019-04-05T09:56:33.511Z,12.04
2019-04-05T09:59:22.447Z,12.07
2019-04-05T10:02:09.005Z,12.15
2019-04-05T10:04:55.859Z,12.28
2019-04-05T10:07:54.175Z,13.37
2019-04-05T10:10:30.359Z,12.73
2019-04-05T10:13:17.411Z,12.80
2019-04-05T10:16:04.073Z,12.95
2019-04-05T10:18:51.679Z,13.14
2019-04-05T10:21:38.476Z,13.31
2019-04-05T10:24:27.125Z,13.51
2019-04-05T10:30:20.196Z,13.97
2019-04-05T10:33:08.022Z,14.10
2019-04-05T10:35:55.077Z,14.10
2019-04-05T10:38:41.841Z,14.20
2019-04-05T10:41:29.282Z,14.17
2019-04-05T10:44:16.586Z,14.14
2019-04-05T10:47:03.635Z,14.18
2019-04-05T10:50:02.505Z,14.23
2019-04-05T10:55:45.642Z,14.37
2019-04-05T10:58:43.313Z,14.42
2019-04-05T11:01:32.767Z,14.49
2019-04-05T11:04:19.653Z,14.45
2019-04-05T11:07:06.741Z,14.46
2019-04-05T11:09:53.781Z,14.43
2019-04-05T11:12:40.814Z,14.38
2019-04-05T11:18:34.281Z,14.37
2019-04-05T11:21:21.123Z,15.50
2019-04-05T11:24:08.186Z,14.70
2019-04-05T11:26:55.274Z,14.58
2019-04-05T11:29:42.434Z,14.49
2019-04-05T11:32:29.250Z,14.35
2019-04-05T11:35:16.419Z,14.28
2019-04-05T11:38:03.273Z,14.31
2019-04-05T11:43:58.498Z,14.48
2019-04-05T11:46:44.919Z,14.64
2019-04-05T11:49:32.799Z,14.79
2019-04-05T11:55:26.375Z,15.23
2019-04-05T11:58:13.605Z,15.42
2019-04-05T12:01:15.764Z,15.64
2019-04-05T12:04:02.424Z,15.76
2019-04-05T12:06:51.761Z,17.16
2019-04-05T12:09:39.523Z,16.32
2019-04-05T12:12:26.900Z,16.30
2019-04-05T12:15:13.864Z,16.33
2019-04-05T12:18:04.236Z,16.36
2019-04-05T12:20:58.999Z,16.28
2019-04-05T12:23:35.454Z,16.34
2019-04-05T12:26:22.991Z,16.37
2019-04-05T12:29:10.252Z,16.36
2019-04-05T12:31:56.915Z,16.35
2019-04-05T12:34:43.672Z,16.39
2019-04-05T12:37:30.523Z,17.74
2019-04-05T12:40:17.255Z,16.93
2019-04-05T12:43:04.080Z,16.89
2019-04-05T12:45:51.588Z,18.06
2019-04-05T12:48:38.678Z,17.11
2019-04-05T12:51:25.793Z,16.99
2019-04-05T12:54:13.012Z,17.18
2019-04-05T12:57:00.384Z,17.20
2019-04-05T13:00:01.395Z,18.68
2019-04-05T13:02:50.455Z,17.76
2019-04-05T13:05:35.616Z,17.99
2019-04-05T13:08:23.652Z,18.21
2019-04-05T13:11:10.134Z,18.15
2019-04-05T13:13:57.670Z,18.09
2019-04-05T13:16:44.391Z,18.19
2019-04-05T13:22:41.388Z,18.38
2019-04-05T13:31:41.723Z,18.68
2019-04-05T13:37:34.601Z,18.62
2019-04-05T13:40:21.597Z,18.67
2019-04-05T13:43:08.869Z,18.60
2019-04-05T13:45:55.645Z,20.02
2019-04-05T13:48:42.231Z,19.18
2019-04-05T13:51:31.805Z,18.78
2019-04-05T13:54:15.971Z,18.53
2019-04-05T13:57:03.174Z,18.49
2019-04-05T13:59:49.801Z,18.44
2019-04-05T14:02:36.995Z,18.59
2019-04-05T14:05:24.185Z,18.56
2019-04-05T14:08:25.806Z,19.80
2019-04-05T14:11:13.199Z,18.56
2019-04-05T14:14:00.523Z,19.72
2019-04-05T14:16:47.740Z,18.41
2019-04-05T14:22:40.571Z,17.88
2019-04-05T14:25:30.089Z,17.83
2019-04-05T14:28:14.469Z,17.73
2019-04-05T14:31:02.962Z,18.05
2019-04-05T14:33:50.390Z,18.27
2019-04-05T14:36:37.396Z,18.25
2019-04-05T14:39:24.035Z,18.10
2019-04-05T14:42:14.459Z,18.08
2019-04-05T14:44:59.048Z,19.30
2019-04-05T14:47:46.331Z,18.28
2019-04-05T14:50:33.589Z,19.31
2019-04-05T14:53:20.825Z,18.37
2019-04-05T14:56:07.849Z,18.26
2019-04-05T14:58:54.561Z,19.57
2019-04-05T15:01:41.429Z,18.61
2019-04-05T15:04:28.572Z,18.39
2019-04-05T15:07:15.325Z,18.33
2019-04-05T15:10:03.895Z,19.51
2019-04-05T15:12:49.478Z,18.69
2019-04-05T15:15:36.573Z,18.48
2019-04-05T15:21:29.427Z,18.29
2019-04-05T15:24:17.188Z,18.28
2019-04-05T15:27:03.500Z,17.90
2019-04-05T15:29:50.304Z,17.70
2019-04-05T15:35:43.139Z,17.93
2019-04-05T15:38:31.753Z,17.98
2019-04-05T15:41:16.913Z,18.09
2019-04-05T15:44:05.401Z,18.52
2019-04-05T15:46:50.857Z,18.71
2019-04-05T15:49:37.541Z,18.56
2019-04-05T15:52:28.228Z,18.39
2019-04-05T15:55:11.863Z,18.37
2019-04-05T15:57:59.317Z,19.83
2019-04-05T16:00:46.297Z,19.29
2019-04-05T16:03:33.162Z,19.20
2019-04-05T16:06:19.997Z,19.20
2019-04-05T16:09:07.021Z,19.30
2019-04-05T16:11:54.386Z,19.41
2019-04-05T16:14:41.337Z,19.09
2019-04-05T16:17:28.718Z,18.81
2019-04-05T16:20:15.884Z,19.88
2019-04-05T16:23:02.684Z,18.86
2019-04-05T16:25:49.726Z,18.48
2019-04-05T16:28:36.516Z,18.25
2019-04-05T16:31:23.989Z,17.94
2019-04-05T16:34:11.177Z,18.82
2019-04-05T16:36:58.317Z,17.99
2019-04-05T16:39:45.454Z,18.83
2019-04-05T16:42:32.860Z,17.94
2019-04-05T16:45:20.048Z,17.74
2019-04-05T16:51:13.388Z,17.02
2019-04-05T17:00:13.958Z,16.45
2019-04-05T17:03:01.309Z,16.29
2019-04-05T17:05:48.735Z,17.12
2019-04-05T17:08:35.877Z,16.30
2019-04-05T17:11:25.623Z,16.00
2019-04-05T17:14:12.503Z,15.74
2019-04-05T17:16:59.752Z,15.49
2019-04-05T17:22:58.262Z,15.01
2019-04-05T17:25:40.885Z,14.84
2019-04-05T17:28:27.567Z,14.67
2019-04-05T17:31:14.699Z,14.50
2019-04-05T17:34:01.722Z,14.33
2019-04-05T17:36:48.347Z,14.15
2019-04-05T17:39:37.403Z,13.98
2019-04-05T17:42:26.617Z,13.81
2019-04-05T17:45:13.632Z,13.62
2019-04-05T17:48:00.721Z,13.47
2019-04-05T17:53:54.451Z,13.35
2019-04-05T17:56:42.122Z,13.08
2019-04-05T17:59:30.121Z,12.89
2019-04-05T18:02:31.996Z,12.71
2019-04-05T18:05:18.799Z,12.54
2019-04-05T18:08:06.004Z,12.41
2019-04-05T18:10:53.046Z,12.28
2019-04-05T18:13:41.077Z,12.14
2019-04-05T18:16:28.198Z,12.80
2019-04-05T18:19:15.047Z,12.16
2019-04-05T18:22:01.869Z,12.75
2019-04-05T18:24:48.541Z,12.07
2019-04-05T18:27:35.917Z,11.87
2019-04-05T18:30:22.936Z,11.68
2019-04-05T18:33:10.261Z,11.56
2019-04-05T18:39:08.418Z,11.30
2019-04-05T18:41:55.476Z,11.18
2019-04-05T18:44:42.177Z,11.83
2019-04-05T18:47:29.345Z,11.25
2019-04-05T18:53:36.759Z,11.94
2019-04-05T18:56:10.944Z,11.21
2019-04-05T19:05:10.692Z,10.67
2019-04-05T19:17:23.771Z,10.25
2019-04-05T19:20:04.170Z,10.19
2019-04-05T19:22:51.124Z,10.12
2019-04-05T19:25:38.013Z,10.08
2019-04-05T19:28:25.139Z,10.03
2019-04-05T19:54:01.212Z,10.39
2019-04-05T19:59:48.596Z,9.74
2019-04-05T20:02:35.842Z,9.64
2019-04-05T20:05:22.523Z,9.62
2019-04-05T20:08:09.168Z,9.60
2019-04-05T20:14:16.588Z,9.53
2019-04-05T20:20:10.436Z,9.49
2019-04-05T20:22:57.887Z,9.47
2019-04-05T20:25:44.749Z,9.44
2019-04-05T20:28:46.729Z,9.42
2019-04-05T20:31:33.898Z,9.38
2019-04-05T20:34:21.225Z,9.40
2019-04-05T20:37:22.533Z,9.36
2019-04-05T20:40:10.035Z,9.33
2019-04-05T20:42:56.838Z,9.99
2019-04-05T20:55:01.946Z,9.20
2019-04-05T20:57:49.060Z,9.16
2019-04-05T21:00:36.198Z,9.80
2019-04-05T21:03:23.701Z,9.26
2019-04-05T21:06:10.845Z,9.85
2019-04-05T21:27:34.934Z,9.03
2019-04-05T21:43:00.340Z,8.96
2019-04-05T21:55:06.808Z,8.58
2019-04-05T21:57:53.330Z,8.51
2019-04-05T22:00:49.641Z,8.43
2019-04-05T22:03:51.451Z,8.36
2019-04-05T22:09:45.230Z,8.24
2019-04-05T22:12:32.243Z,8.17
2019-04-05T22:15:19.364Z,8.11
2019-04-05T22:24:22.165Z,8.68
2019-04-05T22:27:09.784Z,8.17
2019-04-05T22:30:11.183Z,8.05
2019-04-05T22:32:59.064Z,7.94
2019-04-05T22:35:46.055Z,7.89
2019-04-05T22:38:34.541Z,8.52
2019-04-05T22:41:24.719Z,8.02
2019-04-05T23:15:27.441Z,7.50
2019-04-05T23:24:40.704Z,7.36
2019-04-05T23:43:12.587Z,7.09
2019-04-05T23:45:59.357Z,7.05
